sensor_id;sensor_type;location;lat;lon;timestamp;temperature;humidity
26326;DHT22;14032;52.510;7.342;2023-08-20T00:00:18;17.10;99.90
26326;DHT22;14032;52.510;7.342;2023-08-20T00:02:46;17.10;99.90
26326;DHT22;14032;52.510;7.342;2023-08-20T00:05:12;17.10;99.90
26326;DHT22;14032;52.510;7.342;2023-08-20T00:07:38;17.10;99.90
26326;DHT22;14032;52.510;7.342;2023-08-20T00:10:05;17.10;99.90
26326;DHT22;14032;52.510;7.342;2023-08-20T00:12:31;17.10;99.90
26326;DHT22;14032;52.510;7.342;2023-08-20T00:14:57;17.10;99.90
26326;DHT22;14032;52.510;7.342;2023-08-20T00:17:36;17.10;99.90
26326;DHT22;14032;52.510;7.342;2023-08-20T00:20:03;17.10;99.90
26326;DHT22;14032;52.510;7.342;2023-08-20T00:22:38;17.10;99.90
26326;DHT22;14032;52.510;7.342;2023-08-20T00:25:04;17.00;99.90
26326;DHT22;14032;52.510;7.342;2023-08-20T00:27:31;17.00;99.90
26326;DHT22;14032;52.510;7.342;2023-08-20T00:29:56;17.00;99.90
26326;DHT22;14032;52.510;7.342;2023-08-20T00:32:22;17.00;99.90
26326;DHT22;14032;52.510;7.342;2023-08-20T00:34:48;17.00;99.90
26326;DHT22;14032;52.510;7.342;2023-08-20T00:37:13;17.00;99.90
26326;DHT22;14032;52.510;7.342;2023-08-20T00:39:39;17.00;99.90
26326;DHT22;14032;52.510;7.342;2023-08-20T00:42:05;17.00;99.90
26326;DHT22;14032;52.510;7.342;2023-08-20T00:44:31;17.10;99.90
26326;DHT22;14032;52.510;7.342;2023-08-20T00:46:56;17.10;99.90
26326;DHT22;14032;52.510;7.342;2023-08-20T00:49:23;17.10;99.90
26326;DHT22;14032;52.510;7.342;2023-08-20T00:51:49;17.20;99.90
26326;DHT22;14032;52.510;7.342;2023-08-20T00:54:15;17.20;99.90
26326;DHT22;14032;52.510;7.342;2023-08-20T00:56:41;17.20;99.90
26326;DHT22;14032;52.510;7.342;2023-08-20T00:59:07;17.20;99.90
26326;DHT22;14032;52.510;7.342;2023-08-20T01:01:32;17.20;99.90
26326;DHT22;14032;52.510;7.342;2023-08-20T01:03:58;17.30;99.90
26326;DHT22;14032;52.510;7.342;2023-08-20T01:06:40;17.30;99.90
26326;DHT22;14032;52.510;7.342;2023-08-20T01:12:01;17.30;99.90
26326;DHT22;14032;52.510;7.342;2023-08-20T01:14:27;17.30;99.90
26326;DHT22;14032;52.510;7.342;2023-08-20T01:16:53;17.30;99.90
26326;DHT22;14032;52.510;7.342;2023-08-20T01:19:22;17.30;99.90
26326;DHT22;14032;52.510;7.342;2023-08-20T01:24:50;17.30;99.90
26326;DHT22;14032;52.510;7.342;2023-08-20T01:27:40;17.30;99.90
26326;DHT22;14032;52.510;7.342;2023-08-20T01:30:08;17.30;99.90
26326;DHT22;14032;52.510;7.342;2023-08-20T01:32:35;17.30;99.90
26326;DHT22;14032;52.510;7.342;2023-08-20T01:35:00;17.30;99.90
26326;DHT22;14032;52.510;7.342;2023-08-20T01:37:26;17.30;99.90
26326;DHT22;14032;52.510;7.342;2023-08-20T01:39:51;17.20;99.90
26326;DHT22;14032;52.510;7.342;2023-08-20T01:42:18;17.20;99.90
26326;DHT22;14032;52.510;7.342;2023-08-20T01:44:43;17.20;99.90
26326;DHT22;14032;52.510;7.342;2023-08-20T01:47:09;17.10;99.90
26326;DHT22;14032;52.510;7.342;2023-08-20T01:49:34;17.10;99.90
26326;DHT22;14032;52.510;7.342;2023-08-20T01:52:00;17.00;99.90
26326;DHT22;14032;52.510;7.342;2023-08-20T01:54:26;17.00;99.90
26326;DHT22;14032;52.510;7.342;2023-08-20T01:56:51;17.00;99.90
26326;DHT22;14032;52.510;7.342;2023-08-20T01:59:17;16.90;99.90
26326;DHT22;14032;52.510;7.342;2023-08-20T02:01:44;16.90;99.90
26326;DHT22;14032;52.510;7.342;2023-08-20T02:04:09;16.90;99.90
26326;DHT22;14032;52.510;7.342;2023-08-20T02:06:35;16.90;99.90
26326;DHT22;14032;52.510;7.342;2023-08-20T02:09:00;16.80;99.90
26326;DHT22;14032;52.510;7.342;2023-08-20T02:11:26;16.80;99.90
26326;DHT22;14032;52.510;7.342;2023-08-20T02:13:51;16.90;99.90
26326;DHT22;14032;52.510;7.342;2023-08-20T02:16:17;16.80;99.90
26326;DHT22;14032;52.510;7.342;2023-08-20T02:18:43;16.80;99.90
26326;DHT22;14032;52.510;7.342;2023-08-20T02:21:08;16.80;99.90
26326;DHT22;14032;52.510;7.342;2023-08-20T02:23:34;16.80;99.90
26326;DHT22;14032;52.510;7.342;2023-08-20T02:25:59;16.70;99.90
26326;DHT22;14032;52.510;7.342;2023-08-20T02:28:26;16.70;99.90
26326;DHT22;14032;52.510;7.342;2023-08-20T02:30:52;16.70;99.90
26326;DHT22;14032;52.510;7.342;2023-08-20T02:33:18;16.70;99.90
26326;DHT22;14032;52.510;7.342;2023-08-20T02:35:43;16.70;99.90
26326;DHT22;14032;52.510;7.342;2023-08-20T02:38:09;16.70;99.90
26326;DHT22;14032;52.510;7.342;2023-08-20T02:40:40;16.70;99.90
26326;DHT22;14032;52.510;7.342;2023-08-20T02:43:05;16.80;99.90
26326;DHT22;14032;52.510;7.342;2023-08-20T02:45:31;16.80;99.90
26326;DHT22;14032;52.510;7.342;2023-08-20T02:47:57;16.80;99.90
26326;DHT22;14032;52.510;7.342;2023-08-20T02:50:22;16.80;99.90
26326;DHT22;14032;52.510;7.342;2023-08-20T02:52:48;16.90;99.90
26326;DHT22;14032;52.510;7.342;2023-08-20T02:55:13;16.80;99.90
26326;DHT22;14032;52.510;7.342;2023-08-20T02:57:39;16.90;99.90
26326;DHT22;14032;52.510;7.342;2023-08-20T03:00:05;16.90;99.90
26326;DHT22;14032;52.510;7.342;2023-08-20T03:02:35;16.90;99.90
26326;DHT22;14032;52.510;7.342;2023-08-20T03:05:00;16.90;99.90
26326;DHT22;14032;52.510;7.342;2023-08-20T03:07:26;16.90;99.90
26326;DHT22;14032;52.510;7.342;2023-08-20T03:09:51;16.90;99.90
26326;DHT22;14032;52.510;7.342;2023-08-20T03:12:17;16.90;99.90
26326;DHT22;14032;52.510;7.342;2023-08-20T03:14:42;17.00;99.90
26326;DHT22;14032;52.510;7.342;2023-08-20T03:17:08;17.00;99.90
26326;DHT22;14032;52.510;7.342;2023-08-20T03:19:34;17.00;99.90
26326;DHT22;14032;52.510;7.342;2023-08-20T03:22:02;17.00;99.90
26326;DHT22;14032;52.510;7.342;2023-08-20T03:24:28;17.00;99.90
26326;DHT22;14032;52.510;7.342;2023-08-20T03:26:53;17.00;99.90
26326;DHT22;14032;52.510;7.342;2023-08-20T03:29:19;17.00;99.90
26326;DHT22;14032;52.510;7.342;2023-08-20T03:31:44;17.00;99.90
26326;DHT22;14032;52.510;7.342;2023-08-20T03:34:10;17.00;99.90
26326;DHT22;14032;52.510;7.342;2023-08-20T03:36:37;17.00;99.90
26326;DHT22;14032;52.510;7.342;2023-08-20T03:39:02;17.00;99.90
26326;DHT22;14032;52.510;7.342;2023-08-20T03:41:29;17.10;99.90
26326;DHT22;14032;52.510;7.342;2023-08-20T03:43:54;17.10;99.90
26326;DHT22;14032;52.510;7.342;2023-08-20T03:46:20;17.10;99.90
26326;DHT22;14032;52.510;7.342;2023-08-20T03:48:45;17.10;99.90
26326;DHT22;14032;52.510;7.342;2023-08-20T03:51:11;17.20;99.90
26326;DHT22;14032;52.510;7.342;2023-08-20T03:53:36;17.10;99.90
26326;DHT22;14032;52.510;7.342;2023-08-20T03:56:02;17.20;99.90
26326;DHT22;14032;52.510;7.342;2023-08-20T03:58:27;17.20;99.90
26326;DHT22;14032;52.510;7.342;2023-08-20T04:00:53;17.20;99.90
26326;DHT22;14032;52.510;7.342;2023-08-20T04:03:19;17.20;99.90
26326;DHT22;14032;52.510;7.342;2023-08-20T04:05:45;17.20;99.90
26326;DHT22;14032;52.510;7.342;2023-08-20T04:08:10;17.20;99.90
26326;DHT22;14032;52.510;7.342;2023-08-20T04:10:41;17.30;99.90
26326;DHT22;14032;52.510;7.342;2023-08-20T04:13:07;17.30;99.90
26326;DHT22;14032;52.510;7.342;2023-08-20T04:15:33;17.30;99.90
26326;DHT22;14032;52.510;7.342;2023-08-20T04:17:58;17.30;99.90
26326;DHT22;14032;52.510;7.342;2023-08-20T04:20:24;17.40;99.90
26326;DHT22;14032;52.510;7.342;2023-08-20T04:22:49;17.30;99.90
26326;DHT22;14032;52.510;7.342;2023-08-20T04:25:15;17.40;99.90
26326;DHT22;14032;52.510;7.342;2023-08-20T04:27:41;17.40;99.90
26326;DHT22;14032;52.510;7.342;2023-08-20T04:30:07;17.40;99.90
26326;DHT22;14032;52.510;7.342;2023-08-20T04:32:32;17.40;99.90
26326;DHT22;14032;52.510;7.342;2023-08-20T04:34:58;17.40;99.90
26326;DHT22;14032;52.510;7.342;2023-08-20T04:37:24;17.40;99.90
26326;DHT22;14032;52.510;7.342;2023-08-20T04:39:50;17.40;99.90
26326;DHT22;14032;52.510;7.342;2023-08-20T04:42:16;17.40;99.90
26326;DHT22;14032;52.510;7.342;2023-08-20T04:44:41;17.40;99.90
26326;DHT22;14032;52.510;7.342;2023-08-20T04:47:11;17.40;99.90
26326;DHT22;14032;52.510;7.342;2023-08-20T04:49:38;17.50;99.90
26326;DHT22;14032;52.510;7.342;2023-08-20T04:52:04;17.40;99.90
26326;DHT22;14032;52.510;7.342;2023-08-20T04:54:29;17.40;99.90
26326;DHT22;14032;52.510;7.342;2023-08-20T04:56:55;17.40;99.90
26326;DHT22;14032;52.510;7.342;2023-08-20T04:59:20;17.40;99.90
26326;DHT22;14032;52.510;7.342;2023-08-20T05:01:46;17.40;99.90
26326;DHT22;14032;52.510;7.342;2023-08-20T05:04:12;17.40;99.90
26326;DHT22;14032;52.510;7.342;2023-08-20T05:06:37;17.40;99.90
26326;DHT22;14032;52.510;7.342;2023-08-20T05:09:03;17.30;99.90
26326;DHT22;14032;52.510;7.342;2023-08-20T05:11:29;17.40;99.90
26326;DHT22;14032;52.510;7.342;2023-08-20T05:13:57;17.30;99.90
26326;DHT22;14032;52.510;7.342;2023-08-20T05:16:22;17.40;99.90
26326;DHT22;14032;52.510;7.342;2023-08-20T05:18:48;17.40;99.90
26326;DHT22;14032;52.510;7.342;2023-08-20T05:21:13;17.50;99.90
26326;DHT22;14032;52.510;7.342;2023-08-20T05:23:42;17.50;99.90
26326;DHT22;14032;52.510;7.342;2023-08-20T05:26:08;17.50;99.90
26326;DHT22;14032;52.510;7.342;2023-08-20T05:28:34;17.60;99.90
26326;DHT22;14032;52.510;7.342;2023-08-20T05:31:00;17.70;99.90
26326;DHT22;14032;52.510;7.342;2023-08-20T05:33:26;17.80;99.90
26326;DHT22;14032;52.510;7.342;2023-08-20T05:35:52;17.80;99.90
26326;DHT22;14032;52.510;7.342;2023-08-20T05:38:17;18.00;99.90
26326;DHT22;14032;52.510;7.342;2023-08-20T05:40:43;18.10;99.90
26326;DHT22;14032;52.510;7.342;2023-08-20T05:43:09;18.10;99.90
26326;DHT22;14032;52.510;7.342;2023-08-20T05:45:35;18.30;99.90
26326;DHT22;14032;52.510;7.342;2023-08-20T05:48:01;18.40;99.90
26326;DHT22;14032;52.510;7.342;2023-08-20T05:50:26;18.50;99.90
26326;DHT22;14032;52.510;7.342;2023-08-20T05:52:52;18.60;99.90
26326;DHT22;14032;52.510;7.342;2023-08-20T05:55:18;18.70;99.90
26326;DHT22;14032;52.510;7.342;2023-08-20T05:57:44;18.80;99.90
26326;DHT22;14032;52.510;7.342;2023-08-20T06:00:11;18.90;99.90
26326;DHT22;14032;52.510;7.342;2023-08-20T06:02:37;18.90;99.90
26326;DHT22;14032;52.510;7.342;2023-08-20T06:05:03;19.00;99.90
26326;DHT22;14032;52.510;7.342;2023-08-20T06:07:32;19.10;99.90
26326;DHT22;14032;52.510;7.342;2023-08-20T06:09:57;19.20;99.90
26326;DHT22;14032;52.510;7.342;2023-08-20T06:12:23;19.20;99.90
26326;DHT22;14032;52.510;7.342;2023-08-20T06:14:49;19.30;99.90
26326;DHT22;14032;52.510;7.342;2023-08-20T06:17:15;19.40;99.90
26326;DHT22;14032;52.510;7.342;2023-08-20T06:19:40;19.40;99.90
26326;DHT22;14032;52.510;7.342;2023-08-20T06:22:06;19.50;99.90
26326;DHT22;14032;52.510;7.342;2023-08-20T06:24:32;19.60;99.90
26326;DHT22;14032;52.510;7.342;2023-08-20T06:26:58;19.70;99.90
26326;DHT22;14032;52.510;7.342;2023-08-20T06:29:23;19.70;99.90
26326;DHT22;14032;52.510;7.342;2023-08-20T06:31:49;19.70;99.90
26326;DHT22;14032;52.510;7.342;2023-08-20T06:34:15;19.80;99.90
26326;DHT22;14032;52.510;7.342;2023-08-20T06:36:41;19.90;99.90
26326;DHT22;14032;52.510;7.342;2023-08-20T06:39:06;19.90;99.90
26326;DHT22;14032;52.510;7.342;2023-08-20T06:41:32;20.00;99.90
26326;DHT22;14032;52.510;7.342;2023-08-20T06:43:58;20.00;99.90
26326;DHT22;14032;52.510;7.342;2023-08-20T06:46:23;20.10;99.90
26326;DHT22;14032;52.510;7.342;2023-08-20T06:48:49;20.20;99.90
26326;DHT22;14032;52.510;7.342;2023-08-20T06:51:15;20.30;99.90
26326;DHT22;14032;52.510;7.342;2023-08-20T06:53:41;20.30;99.90
26326;DHT22;14032;52.510;7.342;2023-08-20T06:56:08;20.40;99.90
26326;DHT22;14032;52.510;7.342;2023-08-20T06:58:35;20.40;99.90
26326;DHT22;14032;52.510;7.342;2023-08-20T07:01:00;20.50;99.90
26326;DHT22;14032;52.510;7.342;2023-08-20T07:03:43;20.50;99.90
26326;DHT22;14032;52.510;7.342;2023-08-20T07:06:10;20.60;99.90
26326;DHT22;14032;52.510;7.342;2023-08-20T07:08:36;20.60;99.90
26326;DHT22;14032;52.510;7.342;2023-08-20T07:11:04;20.60;99.90
26326;DHT22;14032;52.510;7.342;2023-08-20T07:13:29;20.70;99.90
26326;DHT22;14032;52.510;7.342;2023-08-20T07:15:55;20.70;99.90
26326;DHT22;14032;52.510;7.342;2023-08-20T07:18:20;20.70;99.90
26326;DHT22;14032;52.510;7.342;2023-08-20T07:20:46;20.80;99.90
26326;DHT22;14032;52.510;7.342;2023-08-20T07:23:11;20.90;99.90
26326;DHT22;14032;52.510;7.342;2023-08-20T07:25:38;20.90;99.90
26326;DHT22;14032;52.510;7.342;2023-08-20T07:28:05;21.00;99.90
26326;DHT22;14032;52.510;7.342;2023-08-20T07:30:31;21.00;99.90
26326;DHT22;14032;52.510;7.342;2023-08-20T07:32:56;20.90;99.90
26326;DHT22;14032;52.510;7.342;2023-08-20T07:35:23;21.00;99.90
26326;DHT22;14032;52.510;7.342;2023-08-20T07:37:48;21.00;99.90
26326;DHT22;14032;52.510;7.342;2023-08-20T07:40:14;21.10;99.90
26326;DHT22;14032;52.510;7.342;2023-08-20T07:42:40;21.20;99.90
26326;DHT22;14032;52.510;7.342;2023-08-20T07:45:07;21.30;99.90
26326;DHT22;14032;52.510;7.342;2023-08-20T07:47:33;21.40;99.90
26326;DHT22;14032;52.510;7.342;2023-08-20T07:49:59;21.40;99.90
26326;DHT22;14032;52.510;7.342;2023-08-20T07:52:24;21.50;99.90
26326;DHT22;14032;52.510;7.342;2023-08-20T07:54:50;21.60;99.90
26326;DHT22;14032;52.510;7.342;2023-08-20T07:57:16;21.60;99.90
26326;DHT22;14032;52.510;7.342;2023-08-20T07:59:41;21.70;99.90
26326;DHT22;14032;52.510;7.342;2023-08-20T08:02:07;21.70;99.90
26326;DHT22;14032;52.510;7.342;2023-08-20T08:04:34;21.80;99.90
26326;DHT22;14032;52.510;7.342;2023-08-20T08:07:00;21.80;99.90
26326;DHT22;14032;52.510;7.342;2023-08-20T08:09:31;21.90;99.90
26326;DHT22;14032;52.510;7.342;2023-08-20T08:11:57;22.00;99.90
26326;DHT22;14032;52.510;7.342;2023-08-20T08:14:23;22.00;99.90
26326;DHT22;14032;52.510;7.342;2023-08-20T08:16:49;22.00;99.90
26326;DHT22;14032;52.510;7.342;2023-08-20T08:19:16;21.90;99.90
26326;DHT22;14032;52.510;7.342;2023-08-20T08:21:42;21.90;99.90
26326;DHT22;14032;52.510;7.342;2023-08-20T08:24:09;22.00;99.90
26326;DHT22;14032;52.510;7.342;2023-08-20T08:26:35;22.00;99.90
26326;DHT22;14032;52.510;7.342;2023-08-20T08:29:05;22.10;99.90
26326;DHT22;14032;52.510;7.342;2023-08-20T08:31:30;22.10;99.90
26326;DHT22;14032;52.510;7.342;2023-08-20T08:33:56;22.20;99.90
26326;DHT22;14032;52.510;7.342;2023-08-20T08:36:22;22.20;99.90
26326;DHT22;14032;52.510;7.342;2023-08-20T08:38:50;22.30;99.90
26326;DHT22;14032;52.510;7.342;2023-08-20T08:41:16;22.30;99.90
26326;DHT22;14032;52.510;7.342;2023-08-20T08:43:42;22.40;99.90
26326;DHT22;14032;52.510;7.342;2023-08-20T08:46:12;22.30;99.90
26326;DHT22;14032;52.510;7.342;2023-08-20T08:48:41;22.30;99.90
26326;DHT22;14032;52.510;7.342;2023-08-20T08:51:07;22.30;99.90
26326;DHT22;14032;52.510;7.342;2023-08-20T08:53:33;22.30;99.90
26326;DHT22;14032;52.510;7.342;2023-08-20T08:56:00;22.30;99.90
26326;DHT22;14032;52.510;7.342;2023-08-20T08:58:26;22.20;99.90
26326;DHT22;14032;52.510;7.342;2023-08-20T09:00:52;22.20;99.90
26326;DHT22;14032;52.510;7.342;2023-08-20T09:03:18;22.30;99.90
26326;DHT22;14032;52.510;7.342;2023-08-20T09:06:00;22.40;99.90
26326;DHT22;14032;52.510;7.342;2023-08-20T09:08:29;22.50;99.90
26326;DHT22;14032;52.510;7.342;2023-08-20T09:10:58;22.70;99.90
26326;DHT22;14032;52.510;7.342;2023-08-20T09:13:35;22.90;99.90
26326;DHT22;14032;52.510;7.342;2023-08-20T09:16:04;23.00;99.90
26326;DHT22;14032;52.510;7.342;2023-08-20T09:18:31;23.10;99.90
26326;DHT22;14032;52.510;7.342;2023-08-20T09:20:57;23.20;99.90
26326;DHT22;14032;52.510;7.342;2023-08-20T09:23:28;23.10;99.90
26326;DHT22;14032;52.510;7.342;2023-08-20T09:25:54;23.20;99.90
26326;DHT22;14032;52.510;7.342;2023-08-20T09:28:20;23.10;99.90
26326;DHT22;14032;52.510;7.342;2023-08-20T09:30:58;23.10;99.90
26326;DHT22;14032;52.510;7.342;2023-08-20T09:33:23;23.10;99.90
26326;DHT22;14032;52.510;7.342;2023-08-20T09:35:50;23.00;99.90
26326;DHT22;14032;52.510;7.342;2023-08-20T09:38:19;23.10;99.90
26326;DHT22;14032;52.510;7.342;2023-08-20T09:40:49;23.10;99.90
26326;DHT22;14032;52.510;7.342;2023-08-20T09:43:16;23.20;99.90
26326;DHT22;14032;52.510;7.342;2023-08-20T09:45:43;23.20;99.90
26326;DHT22;14032;52.510;7.342;2023-08-20T09:48:09;23.40;99.90
26326;DHT22;14032;52.510;7.342;2023-08-20T09:50:36;23.50;99.90
26326;DHT22;14032;52.510;7.342;2023-08-20T09:53:17;23.70;99.90
26326;DHT22;14032;52.510;7.342;2023-08-20T09:55:49;23.70;99.90
26326;DHT22;14032;52.510;7.342;2023-08-20T09:58:16;23.80;99.90
26326;DHT22;14032;52.510;7.342;2023-08-20T10:00:42;23.80;99.90
26326;DHT22;14032;52.510;7.342;2023-08-20T10:03:08;23.80;99.90
26326;DHT22;14032;52.510;7.342;2023-08-20T10:05:35;23.90;99.90
26326;DHT22;14032;52.510;7.342;2023-08-20T10:08:01;23.90;99.90
26326;DHT22;14032;52.510;7.342;2023-08-20T10:10:28;24.00;99.90
26326;DHT22;14032;52.510;7.342;2023-08-20T10:12:54;24.00;99.90
26326;DHT22;14032;52.510;7.342;2023-08-20T10:15:21;24.10;99.90
26326;DHT22;14032;52.510;7.342;2023-08-20T10:17:49;24.20;99.90
26326;DHT22;14032;52.510;7.342;2023-08-20T10:20:15;24.20;99.90
26326;DHT22;14032;52.510;7.342;2023-08-20T10:22:45;24.10;99.90
26326;DHT22;14032;52.510;7.342;2023-08-20T10:25:21;24.20;99.90
26326;DHT22;14032;52.510;7.342;2023-08-20T10:27:47;24.20;99.90
26326;DHT22;14032;52.510;7.342;2023-08-20T10:30:20;24.20;99.90
26326;DHT22;14032;52.510;7.342;2023-08-20T10:32:49;24.10;99.90
26326;DHT22;14032;52.510;7.342;2023-08-20T10:35:23;24.20;99.90
26326;DHT22;14032;52.510;7.342;2023-08-20T10:40:54;24.20;99.90
26326;DHT22;14032;52.510;7.342;2023-08-20T10:43:45;24.20;99.90
26326;DHT22;14032;52.510;7.342;2023-08-20T10:48:58;24.20;99.90
26326;DHT22;14032;52.510;7.342;2023-08-20T10:56:46;24.20;99.90
26326;DHT22;14032;52.510;7.342;2023-08-20T10:59:15;24.50;99.90
26326;DHT22;14032;52.510;7.342;2023-08-20T11:01:49;24.50;99.90
26326;DHT22;14032;52.510;7.342;2023-08-20T11:04:17;24.50;99.90
26326;DHT22;14032;52.510;7.342;2023-08-20T11:06:43;24.60;99.90
26326;DHT22;14032;52.510;7.342;2023-08-20T11:09:09;24.60;99.90
26326;DHT22;14032;52.510;7.342;2023-08-20T11:11:38;24.60;99.90
26326;DHT22;14032;52.510;7.342;2023-08-20T11:14:06;24.40;99.90
26326;DHT22;14032;52.510;7.342;2023-08-20T11:16:35;24.50;99.90
26326;DHT22;14032;52.510;7.342;2023-08-20T11:19:04;24.40;99.90
26326;DHT22;14032;52.510;7.342;2023-08-20T11:21:34;24.20;99.90
26326;DHT22;14032;52.510;7.342;2023-08-20T11:24:00;24.00;99.90
26326;DHT22;14032;52.510;7.342;2023-08-20T11:26:26;23.90;99.90
26326;DHT22;14032;52.510;7.342;2023-08-20T11:28:52;23.70;99.90
26326;DHT22;14032;52.510;7.342;2023-08-20T11:31:17;23.80;99.90
26326;DHT22;14032;52.510;7.342;2023-08-20T11:33:43;23.90;99.90
26326;DHT22;14032;52.510;7.342;2023-08-20T11:36:09;24.10;99.90
26326;DHT22;14032;52.510;7.342;2023-08-20T11:38:35;24.20;99.90
26326;DHT22;14032;52.510;7.342;2023-08-20T11:41:00;24.20;99.90
26326;DHT22;14032;52.510;7.342;2023-08-20T11:43:29;24.20;99.90
26326;DHT22;14032;52.510;7.342;2023-08-20T11:45:55;24.10;99.90
26326;DHT22;14032;52.510;7.342;2023-08-20T11:48:23;24.10;99.90
26326;DHT22;14032;52.510;7.342;2023-08-20T11:50:50;24.00;99.90
26326;DHT22;14032;52.510;7.342;2023-08-20T11:53:23;23.90;99.90
26326;DHT22;14032;52.510;7.342;2023-08-20T11:55:49;23.90;99.90
26326;DHT22;14032;52.510;7.342;2023-08-20T11:58:15;23.90;99.90
26326;DHT22;14032;52.510;7.342;2023-08-20T12:00:41;23.90;99.90
26326;DHT22;14032;52.510;7.342;2023-08-20T12:03:08;24.00;99.90
26326;DHT22;14032;52.510;7.342;2023-08-20T12:05:34;24.10;99.90
26326;DHT22;14032;52.510;7.342;2023-08-20T12:08:01;24.20;99.90
26326;DHT22;14032;52.510;7.342;2023-08-20T12:10:28;24.30;99.90
26326;DHT22;14032;52.510;7.342;2023-08-20T12:12:55;24.30;99.90
26326;DHT22;14032;52.510;7.342;2023-08-20T12:15:21;24.30;99.90
26326;DHT22;14032;52.510;7.342;2023-08-20T12:20:22;24.30;99.90
26326;DHT22;14032;52.510;7.342;2023-08-20T12:22:48;24.20;99.90
26326;DHT22;14032;52.510;7.342;2023-08-20T12:25:14;24.20;99.90
26326;DHT22;14032;52.510;7.342;2023-08-20T12:27:39;24.20;99.90
26326;DHT22;14032;52.510;7.342;2023-08-20T12:30:07;24.10;99.90
26326;DHT22;14032;52.510;7.342;2023-08-20T12:32:32;24.10;99.90
26326;DHT22;14032;52.510;7.342;2023-08-20T12:34:58;24.10;99.90
26326;DHT22;14032;52.510;7.342;2023-08-20T12:37:23;24.10;99.90
26326;DHT22;14032;52.510;7.342;2023-08-20T12:39:49;24.10;99.90
26326;DHT22;14032;52.510;7.342;2023-08-20T12:42:14;24.10;99.90
26326;DHT22;14032;52.510;7.342;2023-08-20T12:44:40;24.10;99.90
26326;DHT22;14032;52.510;7.342;2023-08-20T12:47:05;24.00;99.90
26326;DHT22;14032;52.510;7.342;2023-08-20T12:49:31;24.10;99.90
26326;DHT22;14032;52.510;7.342;2023-08-20T12:51:56;24.10;99.90
26326;DHT22;14032;52.510;7.342;2023-08-20T12:54:22;24.10;99.90
26326;DHT22;14032;52.510;7.342;2023-08-20T12:56:48;24.10;99.90
26326;DHT22;14032;52.510;7.342;2023-08-20T12:59:13;24.10;99.90
26326;DHT22;14032;52.510;7.342;2023-08-20T13:01:39;24.10;99.90
26326;DHT22;14032;52.510;7.342;2023-08-20T13:04:04;24.00;99.90
26326;DHT22;14032;52.510;7.342;2023-08-20T13:06:30;24.00;99.90
26326;DHT22;14032;52.510;7.342;2023-08-20T13:08:56;23.90;99.90
26326;DHT22;14032;52.510;7.342;2023-08-20T13:11:25;23.90;99.90
26326;DHT22;14032;52.510;7.342;2023-08-20T13:13:51;23.90;99.90
26326;DHT22;14032;52.510;7.342;2023-08-20T13:16:18;23.90;99.90
26326;DHT22;14032;52.510;7.342;2023-08-20T13:18:45;23.90;99.90
26326;DHT22;14032;52.510;7.342;2023-08-20T13:21:11;23.90;99.90
26326;DHT22;14032;52.510;7.342;2023-08-20T13:23:36;23.90;99.90
26326;DHT22;14032;52.510;7.342;2023-08-20T13:26:02;24.00;99.90
26326;DHT22;14032;52.510;7.342;2023-08-20T13:28:28;24.00;99.90
26326;DHT22;14032;52.510;7.342;2023-08-20T13:30:54;24.00;99.90
26326;DHT22;14032;52.510;7.342;2023-08-20T13:33:19;23.90;99.90
26326;DHT22;14032;52.510;7.342;2023-08-20T13:35:45;24.00;99.90
26326;DHT22;14032;52.510;7.342;2023-08-20T13:38:11;23.90;99.90
26326;DHT22;14032;52.510;7.342;2023-08-20T13:40:37;24.00;99.90
26326;DHT22;14032;52.510;7.342;2023-08-20T13:43:02;24.00;99.90
26326;DHT22;14032;52.510;7.342;2023-08-20T13:45:28;24.00;99.90
26326;DHT22;14032;52.510;7.342;2023-08-20T13:47:54;24.00;99.90
26326;DHT22;14032;52.510;7.342;2023-08-20T13:50:19;24.10;99.90
26326;DHT22;14032;52.510;7.342;2023-08-20T13:52:45;24.10;99.90
26326;DHT22;14032;52.510;7.342;2023-08-20T13:55:10;24.20;99.90
26326;DHT22;14032;52.510;7.342;2023-08-20T13:57:36;24.20;99.90
26326;DHT22;14032;52.510;7.342;2023-08-20T14:00:02;24.20;99.90
26326;DHT22;14032;52.510;7.342;2023-08-20T14:02:33;24.30;99.90
26326;DHT22;14032;52.510;7.342;2023-08-20T14:04:59;24.30;99.90
26326;DHT22;14032;52.510;7.342;2023-08-20T14:07:24;24.30;99.90
26326;DHT22;14032;52.510;7.342;2023-08-20T14:09:50;24.30;99.90
26326;DHT22;14032;52.510;7.342;2023-08-20T14:12:16;24.30;99.90
26326;DHT22;14032;52.510;7.342;2023-08-20T14:14:41;24.40;99.90
26326;DHT22;14032;52.510;7.342;2023-08-20T14:17:07;24.40;99.90
26326;DHT22;14032;52.510;7.342;2023-08-20T14:19:34;24.40;99.90
26326;DHT22;14032;52.510;7.342;2023-08-20T14:21:59;24.40;99.90
26326;DHT22;14032;52.510;7.342;2023-08-20T14:24:25;24.30;99.90
26326;DHT22;14032;52.510;7.342;2023-08-20T14:26:51;24.30;99.90
26326;DHT22;14032;52.510;7.342;2023-08-20T14:29:16;24.20;99.90
26326;DHT22;14032;52.510;7.342;2023-08-20T14:31:42;24.10;99.90
26326;DHT22;14032;52.510;7.342;2023-08-20T14:34:08;24.10;99.90
26326;DHT22;14032;52.510;7.342;2023-08-20T14:36:33;24.10;99.90
26326;DHT22;14032;52.510;7.342;2023-08-20T14:38:59;24.00;99.90
26326;DHT22;14032;52.510;7.342;2023-08-20T14:41:24;24.00;99.90
26326;DHT22;14032;52.510;7.342;2023-08-20T14:43:50;24.00;99.90
26326;DHT22;14032;52.510;7.342;2023-08-20T14:46:15;24.10;99.90
26326;DHT22;14032;52.510;7.342;2023-08-20T14:48:41;24.20;99.90
26326;DHT22;14032;52.510;7.342;2023-08-20T14:51:08;24.20;99.90
26326;DHT22;14032;52.510;7.342;2023-08-20T14:53:34;24.30;99.90
26326;DHT22;14032;52.510;7.342;2023-08-20T14:55:59;24.30;99.80
26326;DHT22;14032;52.510;7.342;2023-08-20T14:58:25;24.30;99.90
26326;DHT22;14032;52.510;7.342;2023-08-20T15:00:50;24.40;99.90
26326;DHT22;14032;52.510;7.342;2023-08-20T15:03:16;24.30;99.90
26326;DHT22;14032;52.510;7.342;2023-08-20T15:05:42;24.30;99.90
26326;DHT22;14032;52.510;7.342;2023-08-20T15:08:07;24.30;99.90
26326;DHT22;14032;52.510;7.342;2023-08-20T15:10:33;24.30;99.90
26326;DHT22;14032;52.510;7.342;2023-08-20T15:12:58;24.30;99.90
26326;DHT22;14032;52.510;7.342;2023-08-20T15:15:24;24.20;99.90
26326;DHT22;14032;52.510;7.342;2023-08-20T15:17:51;24.20;99.90
26326;DHT22;14032;52.510;7.342;2023-08-20T15:20:18;24.20;99.90
26326;DHT22;14032;52.510;7.342;2023-08-20T15:22:44;24.20;99.90
26326;DHT22;14032;52.510;7.342;2023-08-20T15:25:10;24.20;99.90
26326;DHT22;14032;52.510;7.342;2023-08-20T15:27:37;24.20;99.90
26326;DHT22;14032;52.510;7.342;2023-08-20T15:30:03;24.20;99.90
26326;DHT22;14032;52.510;7.342;2023-08-20T15:32:29;24.20;99.90
26326;DHT22;14032;52.510;7.342;2023-08-20T15:34:55;24.20;99.90
26326;DHT22;14032;52.510;7.342;2023-08-20T15:37:21;24.30;99.90
26326;DHT22;14032;52.510;7.342;2023-08-20T15:39:47;24.20;99.90
26326;DHT22;14032;52.510;7.342;2023-08-20T15:42:12;24.20;99.90
26326;DHT22;14032;52.510;7.342;2023-08-20T15:44:39;24.20;99.90